Time;durP1;ratioP1;P1;durP2;ratioP2;P2;SDS_P1;SDS_P2;PMS_P1;PMS_P2;Temp;Humidity;BMP_temperature;BMP_pressure;BME280_temperature;BME280_humidity;BME280_pressure;Samples;Min_cycle;Max_cycle;Signal;HPM_P1;HPM_P2
2021/12/21 00:00:23;;;;;;;7.37;5.60;;;;;;;3.76;49.67;99623.69;4992088;28;20044;-79
2021/12/21 00:02:51;;;;;;;9.20;6.30;;;;;;;4.53;49.74;99755.53;4992359;28;20110;-79
2021/12/21 00:05:20;;;;;;;6.93;5.50;;;;;;;4.47;49.77;99718.50;4992556;28;20088;-79
2021/12/21 00:07:50;;;;;;;8.20;5.90;;;;;;;4.47;49.78;99739.44;4992535;28;20474;-79
2021/12/21 00:10:17;;;;;;;8.00;6.50;;;;;;;3.73;49.66;99616.13;4992566;28;20113;-79
2021/12/21 00:20:57;;;;;;;9.33;6.40;;;;;;;4.02;50.11;99701.56;5010108;28;20037;-80
2021/12/21 00:25:55;;;;;;;6.68;5.80;;;;;;;4.25;50.10;99763.13;5011783;28;20022;-79
2021/12/21 00:28:20;;;;;;;7.57;5.63;;;;;;;4.03;50.13;99724.13;5012092;28;20041;-79
2021/12/21 00:30:46;;;;;;;7.20;5.70;;;;;;;3.93;49.89;99711.03;5012348;28;20038;-79
2021/12/21 00:33:11;;;;;;;6.23;4.83;;;;;;;4.21;49.94;99759.13;5011916;28;20026;-79
2021/12/21 00:35:36;;;;;;;8.97;5.93;;;;;;;3.93;50.05;99703.19;5014271;28;20055;-79
2021/12/21 00:38:04;;;;;;;5.67;5.07;;;;;;;4.23;49.78;99744.16;5015741;28;20041;-79
2021/12/21 00:40:31;;;;;;;6.43;5.43;;;;;;;3.68;49.56;99683.56;5015391;28;20499;-79
2021/12/21 00:42:56;;;;;;;7.40;5.60;;;;;;;3.76;49.85;99675.09;5015214;28;20026;-79
2021/12/21 00:45:22;;;;;;;6.00;5.07;;;;;;;3.67;49.95;99661.00;5015553;28;20068;-78
2021/12/21 00:47:49;;;;;;;8.27;5.77;;;;;;;3.79;50.01;99680.88;5015412;28;20052;-79
2021/12/21 00:50:17;;;;;;;7.53;4.90;;;;;;;3.95;50.23;99710.91;5015510;28;20050;-79
2021/12/21 00:52:51;;;;;;;6.80;5.43;;;;;;;3.79;50.08;99691.31;5016167;28;20018;-79
2021/12/21 00:55:17;;;;;;;6.43;5.40;;;;;;;4.14;49.59;99753.59;5016992;28;20060;-79
2021/12/21 00:57:42;;;;;;;7.80;4.77;;;;;;;3.48;50.21;99637.44;5015515;28;20034;-79
2021/12/21 01:00:11;;;;;;;7.90;5.20;;;;;;;4.11;50.01;99742.59;5016071;28;20065;-79
2021/12/21 01:02:37;;;;;;;7.03;5.33;;;;;;;3.98;50.09;99752.44;5015550;28;20038;-79
2021/12/21 01:05:06;;;;;;;6.40;5.27;;;;;;;3.91;50.21;99719.97;5016378;28;20502;-79
2021/12/21 01:07:37;;;;;;;7.93;4.70;;;;;;;3.69;50.02;99687.81;5013927;28;20022;-79
2021/12/21 01:12:57;;;;;;;5.63;4.10;;;;;;;3.44;50.17;99662.97;5014860;28;20032;-79
2021/12/21 01:18:06;;;;;;;4.90;4.00;;;;;;;3.89;49.69;99732.31;5015509;28;20034;-79
2021/12/21 01:20:40;;;;;;;5.33;4.40;;;;;;;3.77;50.05;99728.97;5014964;28;20030;-79
2021/12/21 01:23:37;;;;;;;4.70;3.80;;;;;;;3.09;49.73;99618.97;5014920;28;20037;-79
2021/12/21 01:26:14;;;;;;;4.53;3.93;;;;;;;3.10;49.72;99638.06;5014837;28;20030;-79
2021/12/21 01:34:09;;;;;;;5.80;3.73;;;;;;;3.02;49.52;99612.63;5015345;28;20034;-80
2021/12/21 01:50:29;;;;;;;13.70;7.40;;;;;;;3.63;49.29;99684.91;5009584;28;20038;-79
2021/12/21 01:52:55;;;;;;;15.83;9.43;;;;;;;2.60;48.85;99520.53;5014559;28;20022;-79
2021/12/21 01:55:21;;;;;;;8.30;5.30;;;;;;;3.76;48.99;99711.66;5014561;28;20025;-79
2021/12/21 01:57:46;;;;;;;5.90;3.87;;;;;;;3.31;49.07;99628.41;5014200;28;20036;-78
2021/12/21 02:00:12;;;;;;;4.60;3.30;;;;;;;3.47;48.65;99657.47;5013965;28;20091;-79
2021/12/21 02:02:38;;;;;;;7.57;3.90;;;;;;;4.01;49.04;99742.56;5013960;28;20026;-79
2021/12/21 02:05:04;;;;;;;6.23;3.43;;;;;;;2.15;48.86;99465.22;5014422;28;20026;-79
2021/12/21 02:07:29;;;;;;;4.80;3.63;;;;;;;3.98;48.75;99750.66;5014302;28;20022;-79
2021/12/21 02:09:55;;;;;;;5.60;3.17;;;;;;;3.60;48.96;99688.59;5014218;28;20426;-79
2021/12/21 02:12:21;;;;;;;4.73;3.00;;;;;;;3.50;48.81;99677.28;5013017;28;20014;-79
2021/12/21 02:14:54;;;;;;;5.33;3.47;;;;;;;3.29;48.71;99656.44;5012835;28;20108;-79
2021/12/21 02:20:07;;;;;;;6.33;3.30;;;;;;;3.96;48.66;99752.56;5010597;28;20555;-79
2021/12/21 02:22:36;;;;;;;4.90;3.40;;;;;;;3.99;48.36;99764.53;5014020;28;20026;-79
2021/12/21 02:28:10;;;;;;;5.10;3.33;;;;;;;3.14;48.25;99616.81;5009965;28;20033;-79
2021/12/21 02:30:38;;;;;;;4.43;3.47;;;;;;;3.09;48.19;99599.88;5013610;28;20084;-79
2021/12/21 02:33:04;;;;;;;4.57;3.37;;;;;;;3.80;48.39;99720.88;5013358;28;20028;-80
2021/12/21 02:35:30;;;;;;;4.83;3.77;;;;;;;3.33;47.92;99672.66;5013170;28;20025;-79
2021/12/21 02:37:56;;;;;;;4.43;3.30;;;;;;;3.74;48.14;99735.28;5013197;28;20036;-79
2021/12/21 02:40:21;;;;;;;4.77;3.20;;;;;;;3.69;48.30;99707.88;5012987;28;20487;-78
2021/12/21 02:42:46;;;;;;;3.90;2.97;;;;;;;3.57;47.70;99685.41;5013245;28;20071;-79
2021/12/21 02:45:13;;;;;;;4.20;3.00;;;;;;;3.31;48.01;99653.69;5012373;28;20050;-79
2021/12/21 02:47:39;;;;;;;4.57;3.50;;;;;;;3.72;48.11;99711.09;5013157;28;20060;-79
2021/12/21 02:50:05;;;;;;;3.20;2.67;;;;;;;3.63;47.99;99693.56;5013496;28;20037;-79
2021/12/21 02:52:33;;;;;;;4.17;3.10;;;;;;;3.54;48.05;99676.06;5011692;28;20077;-79
2021/12/21 02:54:59;;;;;;;3.50;3.20;;;;;;;3.55;47.87;99671.66;5012871;28;20021;-79
2021/12/21 02:57:24;;;;;;;4.30;3.23;;;;;;;3.91;48.15;99735.63;5012523;28;20030;-79
2021/12/21 02:59:50;;;;;;;4.50;3.50;;;;;;;3.74;47.79;99726.63;5013179;28;20032;-79
2021/12/21 03:02:15;;;;;;;5.27;3.07;;;;;;;3.36;48.01;99654.13;5012564;28;20029;-79
2021/12/21 03:04:45;;;;;;;3.73;2.80;;;;;;;4.02;47.87;99761.66;5012741;28;20029;-78
2021/12/21 03:09:45;;;;;;;4.27;3.03;;;;;;;3.27;47.63;99665.34;5012852;28;20092;-79
2021/12/21 03:14:48;;;;;;;5.27;2.80;;;;;;;3.95;47.43;99778.81;5013219;28;20069;-79
2021/12/21 03:17:14;;;;;;;3.53;2.60;;;;;;;3.96;47.29;99777.88;5013332;28;20034;-79
2021/12/21 03:19:40;;;;;;;3.00;2.50;;;;;;;3.16;47.09;99650.59;5013317;28;20030;-79
2021/12/21 03:22:06;;;;;;;3.30;2.73;;;;;;;3.88;47.05;99777.69;5013237;28;20048;-79
2021/12/21 03:24:33;;;;;;;4.07;3.30;;;;;;;3.87;47.47;99770.81;5012041;28;20025;-79
2021/12/21 03:26:58;;;;;;;8.57;4.10;;;;;;;3.06;47.44;99655.75;5012644;28;20029;-79
2021/12/21 03:29:25;;;;;;;5.70;3.77;;;;;;;3.93;47.10;99780.72;5012387;28;20510;-79
2021/12/21 03:31:50;;;;;;;5.13;3.57;;;;;;;3.92;46.89;99771.25;5012728;28;20083;-79
2021/12/21 03:34:16;;;;;;;4.90;3.90;;;;;;;3.52;47.21;99732.78;5012439;28;20022;-79
2021/12/21 03:36:42;;;;;;;5.03;3.77;;;;;;;3.74;47.45;99755.34;5012389;28;20490;-79
2021/12/21 03:39:10;;;;;;;5.87;3.77;;;;;;;3.73;47.15;99775.41;5012550;28;20034;-79
2021/12/21 03:41:41;;;;;;;4.63;3.30;;;;;;;3.77;47.34;99791.66;5012404;28;20034;-79
2021/12/21 03:44:09;;;;;;;4.63;4.10;;;;;;;3.56;47.38;99736.81;5012809;28;20045;-79
2021/12/21 03:46:34;;;;;;;4.83;3.50;;;;;;;3.22;47.52;99699.66;5012810;28;20021;-79
2021/12/21 03:49:10;;;;;;;4.33;3.80;;;;;;;3.69;47.28;99765.31;5011024;28;20493;-79
2021/12/21 03:51:35;;;;;;;3.60;3.30;;;;;;;3.42;47.58;99753.63;5012087;28;20029;-79
2021/12/21 03:54:01;;;;;;;5.40;4.50;;;;;;;3.50;47.57;99756.41;5012485;28;20026;-79
2021/12/21 03:58:54;;;;;;;3.87;3.20;;;;;;;2.67;47.75;99659.00;5012537;28;20056;-78
2021/12/21 04:01:20;;;;;;;5.77;4.23;;;;;;;3.50;47.84;99772.06;5012154;28;20026;-79
2021/12/21 04:03:46;;;;;;;7.33;4.40;;;;;;;3.72;47.81;99801.66;5012512;28;20034;-79
2021/12/21 04:06:11;;;;;;;7.37;5.10;;;;;;;3.74;47.54;99799.75;5012508;28;20029;-79
2021/12/21 04:08:37;;;;;;;8.93;3.97;;;;;;;3.40;47.85;99760.75;5011170;28;20030;-79
2021/12/21 04:11:03;;;;;;;5.67;3.83;;;;;;;2.83;47.89;99638.53;5014101;28;20187;-79
2021/12/21 04:13:30;;;;;;;4.87;3.87;;;;;;;3.83;48.01;99805.03;5016038;28;20033;-79
2021/12/21 04:15:59;;;;;;;5.37;4.10;;;;;;;3.73;47.81;99790.25;5016054;28;20029;-79
2021/12/21 04:18:24;;;;;;;5.23;4.00;;;;;;;3.55;48.13;99766.47;5015968;28;20026;-80
2021/12/21 04:20:50;;;;;;;5.17;4.37;;;;;;;3.83;48.27;99802.41;5012865;28;20480;-79
2021/12/21 04:23:16;;;;;;;15.13;7.83;;;;;;;3.87;47.66;99817.81;5016227;28;20091;-79
2021/12/21 04:25:42;;;;;;;5.67;4.47;;;;;;;3.09;47.94;99705.06;5016612;28;20025;-79
2021/12/21 04:28:08;;;;;;;6.43;4.67;;;;;;;3.14;47.99;99708.09;5016504;28;20026;-79
2021/12/21 04:30:33;;;;;;;6.10;4.30;;;;;;;3.36;47.68;99754.13;5016528;28;20057;-79
2021/12/21 04:32:59;;;;;;;5.10;4.17;;;;;;;3.63;47.98;99803.22;5016681;28;20049;-79
2021/12/21 04:35:24;;;;;;;6.53;5.10;;;;;;;3.21;48.20;99742.34;5015693;28;20105;-79
2021/12/21 04:38:00;;;;;;;5.10;4.10;;;;;;;3.55;47.86;99779.53;5015709;28;20053;-79
2021/12/21 04:40:38;;;;;;;6.80;4.97;;;;;;;3.77;47.76;99838.66;5015701;28;20038;-78
2021/12/21 04:43:05;;;;;;;12.40;9.07;;;;;;;3.90;48.08;99839.28;5015725;28;20065;-79
2021/12/21 04:45:31;;;;;;;9.83;5.53;;;;;;;3.31;48.10;99763.28;5014167;28;20033;-78
2021/12/21 04:47:57;;;;;;;16.23;9.80;;;;;;;3.03;48.29;99715.16;5016115;28;20029;-79
2021/12/21 04:50:22;;;;;;;10.07;7.03;;;;;;;3.13;48.21;99755.19;5015621;28;20120;-79
2021/12/21 04:52:48;;;;;;;7.70;5.57;;;;;;;2.05;47.88;99564.09;5015556;28;20033;-79
2021/12/21 04:55:13;;;;;;;9.00;5.97;;;;;;;3.73;48.21;99845.09;5015464;28;20610;-80
2021/12/21 04:57:40;;;;;;;5.67;4.53;;;;;;;3.14;48.43;99768.13;5014813;28;20055;-79
2021/12/21 05:00:08;;;;;;;7.20;4.83;;;;;;;3.00;48.04;99713.63;5013956;28;20410;-79
2021/12/21 05:02:34;;;;;;;7.30;5.10;;;;;;;3.20;47.94;99769.38;5014797;28;20108;-79
2021/12/21 05:04:59;;;;;;;14.73;7.73;;;;;;;3.78;48.02;99859.41;5014629;28;20156;-79
2021/12/21 05:07:27;;;;;;;11.57;7.73;;;;;;;3.11;48.14;99747.50;5015024;28;20491;-79
2021/12/21 05:09:57;;;;;;;10.53;7.67;;;;;;;3.81;48.04;99864.38;5015654;28;20388;-79
2021/12/21 05:12:23;;;;;;;12.83;8.17;;;;;;;3.78;47.85;99867.25;5013807;28;20022;-79
2021/12/21 05:14:48;;;;;;;14.23;9.20;;;;;;;3.65;47.97;99832.63;5015079;28;20149;-80
2021/12/21 05:17:13;;;;;;;11.63;6.83;;;;;;;3.79;48.09;99879.34;5014923;28;20091;-79
2021/12/21 05:19:39;;;;;;;8.03;5.77;;;;;;;3.57;47.97;99857.72;5013621;28;20026;-80
2021/12/21 05:22:04;;;;;;;9.33;5.73;;;;;;;3.71;48.03;99881.75;5014526;28;20026;-79
2021/12/21 05:24:30;;;;;;;8.00;5.73;;;;;;;2.99;47.96;99763.31;5014630;28;20101;-79
2021/12/21 05:26:57;;;;;;;10.00;7.00;;;;;;;3.73;47.95;99884.25;5015023;28;20084;-79
2021/12/21 05:29:23;;;;;;;9.53;5.73;;;;;;;3.21;48.29;99796.31;5014883;28;20048;-80
2021/12/21 05:31:50;;;;;;;7.93;4.70;;;;;;;3.15;47.72;99802.84;5014777;28;20026;-78
2021/12/21 05:34:15;;;;;;;10.83;7.57;;;;;;;3.68;48.18;99894.22;5014733;28;20101;-79
2021/12/21 05:36:41;;;;;;;6.70;5.47;;;;;;;3.27;47.87;99848.81;5015142;28;20490;-79
2021/12/21 05:39:15;;;;;;;8.00;5.47;;;;;;;3.48;48.05;99872.34;5014404;28;20025;-79
2021/12/21 05:41:55;;;;;;;7.47;5.60;;;;;;;3.11;48.29;99827.53;5014247;28;20033;-79
2021/12/21 05:44:23;;;;;;;9.50;6.90;;;;;;;3.67;47.98;99923.91;5014718;28;20585;-79
2021/12/21 05:46:51;;;;;;;8.63;5.87;;;;;;;3.57;48.24;99913.38;5014116;28;20064;-79
2021/12/21 05:49:17;;;;;;;9.03;6.33;;;;;;;3.32;48.17;99864.09;5014278;28;20450;-79
2021/12/21 05:51:43;;;;;;;9.30;6.57;;;;;;;3.55;48.35;99930.94;5014153;28;20022;-79
2021/12/21 05:54:09;;;;;;;9.90;5.90;;;;;;;3.12;48.50;99835.22;5014268;28;20084;-79
2021/12/21 05:56:35;;;;;;;8.33;6.73;;;;;;;3.61;48.33;99921.78;5014119;28;20034;-79
2021/12/21 05:59:02;;;;;;;8.70;6.93;;;;;;;3.23;48.44;99849.19;5013728;28;20040;-79
2021/12/21 06:01:31;;;;;;;7.67;5.47;;;;;;;3.24;48.33;99843.84;5013844;28;20474;-79
2021/12/21 06:03:57;;;;;;;11.97;8.37;;;;;;;3.10;48.48;99837.13;5012479;28;20030;-79
2021/12/21 06:06:23;;;;;;;9.40;6.27;;;;;;;3.07;48.32;99813.91;5010688;28;20041;-79
2021/12/21 06:08:50;;;;;;;8.53;5.20;;;;;;;3.74;48.41;99962.47;4995121;28;20033;-79
2021/12/21 06:11:16;;;;;;;7.10;6.27;;;;;;;3.61;48.32;99903.50;4994293;28;20092;-79
2021/12/21 06:27:24;;;;;;;13.10;8.43;;;;;;;3.58;48.01;99896.75;5017999;28;20028;-82
2021/12/21 06:29:49;;;;;;;15.77;9.60;;;;;;;2.85;48.19;99775.66;5017393;28;20025;-82
2021/12/21 06:32:15;;;;;;;11.23;6.53;;;;;;;2.83;47.63;99779.34;5016158;28;20101;-82
2021/12/21 06:34:41;;;;;;;11.07;7.10;;;;;;;3.66;48.15;99925.69;5032250;28;20096;-82
2021/12/21 06:37:07;;;;;;;10.63;7.07;;;;;;;3.92;47.93;99967.16;5018468;28;20169;-82
2021/12/21 06:39:33;;;;;;;11.83;6.70;;;;;;;3.46;47.75;99913.41;5020154;28;20499;-83
2021/12/21 06:41:59;;;;;;;8.30;6.47;;;;;;;3.37;48.24;99916.75;5034773;28;20525;-82
2021/12/21 06:44:25;;;;;;;10.23;6.80;;;;;;;3.22;47.89;99873.63;5023268;28;20495;-83
2021/12/21 06:52:19;;;;;;;7.57;5.37;;;;;;;3.96;47.88;99984.22;5012363;28;20104;-82
2021/12/21 06:54:44;;;;;;;9.50;6.00;;;;;;;3.17;47.85;99869.59;5003986;28;20035;-82
2021/12/21 06:57:10;;;;;;;6.60;5.20;;;;;;;3.92;48.14;99982.81;5016779;28;20026;-82
2021/12/21 06:59:35;;;;;;;6.93;4.93;;;;;;;3.37;47.58;99911.53;5015916;28;20463;-83
2021/12/21 07:02:01;;;;;;;4.53;3.57;;;;;;;3.90;47.67;99976.91;5004901;28;20041;-82
2021/12/21 07:04:27;;;;;;;6.03;4.87;;;;;;;3.48;47.79;99928.00;5006959;28;20049;-83
2021/12/21 07:06:54;;;;;;;6.70;5.00;;;;;;;3.39;47.42;99907.03;5010125;28;20037;-83
2021/12/21 07:09:39;;;;;;;8.87;4.57;;;;;;;3.48;47.64;99919.34;5024888;28;20026;-83
2021/12/21 07:20:12;;;;;;;7.20;5.23;;;;;;;4.05;47.35;99983.47;5029988;28;20040;-84
2021/12/21 07:22:37;;;;;;;5.57;3.80;;;;;;;4.09;47.29;100001.41;5034433;28;20030;-81
2021/12/21 07:25:03;;;;;;;7.63;4.33;;;;;;;3.92;46.68;99951.47;5002604;28;20113;-79
2021/12/21 07:27:29;;;;;;;7.47;4.23;;;;;;;4.31;46.80;100023.97;5027540;28;20029;-80
2021/12/21 07:29:54;;;;;;;7.13;4.20;;;;;;;4.32;46.68;100002.13;5028344;28;20018;-79
2021/12/21 07:32:19;;;;;;;6.13;3.47;;;;;;;4.07;46.49;99973.75;4998353;28;20027;-80
2021/12/21 07:34:45;;;;;;;9.03;4.83;;;;;;;4.05;45.59;99973.88;4994519;28;20038;-79
2021/12/21 07:37:10;;;;;;;6.47;4.37;;;;;;;3.60;45.53;99891.41;5002140;28;20033;-79
2021/12/21 07:39:37;;;;;;;6.20;3.70;;;;;;;3.22;45.57;99852.75;5024909;28;20563;-80
2021/12/21 07:42:04;;;;;;;10.50;5.13;;;;;;;4.44;45.44;100034.25;5005065;28;20105;-79
2021/12/21 07:44:29;;;;;;;7.10;4.63;;;;;;;4.46;45.11;100046.28;5006907;28;20038;-79
2021/12/21 07:46:56;;;;;;;6.63;4.60;;;;;;;3.84;45.06;99933.81;5003098;28;20022;-80
2021/12/21 07:49:22;;;;;;;8.10;5.13;;;;;;;4.26;45.50;100015.69;5019113;28;20036;-81
2021/12/21 07:51:48;;;;;;;10.00;5.47;;;;;;;4.33;45.01;99992.50;5033167;28;20476;-79
2021/12/21 07:54:17;;;;;;;11.63;5.80;;;;;;;4.60;44.98;100023.38;5035564;28;20038;-79
2021/12/21 07:56:43;;;;;;;9.17;4.87;;;;;;;3.81;44.81;99913.19;5020608;28;20087;-79
2021/12/21 07:59:11;;;;;;;10.90;6.50;;;;;;;4.38;44.92;100004.22;5018204;28;20033;-79
2021/12/21 08:01:40;;;;;;;7.03;4.73;;;;;;;4.53;45.10;100040.53;5031671;28;20027;-80
2021/12/21 08:04:09;;;;;;;6.07;3.90;;;;;;;4.35;44.52;99996.63;5007770;28;20037;-81
2021/12/21 08:06:35;;;;;;;7.57;6.07;;;;;;;3.87;44.77;99933.56;5018634;28;20029;-80
2021/12/21 08:09:03;;;;;;;7.30;4.57;;;;;;;3.01;45.07;99839.66;5014702;28;20120;-80
2021/12/21 08:14:02;;;;;;;;;;;;;;;4.54;44.57;100048.25;5020046;28;20517;-79
2021/12/21 08:16:27;;;;;;;4.47;3.60;;;;;;;3.95;45.08;99972.97;5007903;28;20020;-79
2021/12/21 08:18:53;;;;;;;5.90;5.07;;;;;;;4.19;45.16;99998.84;4999778;28;20120;-79
2021/12/21 08:21:19;;;;;;;7.73;4.83;;;;;;;4.43;44.64;100015.13;5000509;28;20164;-80
2021/12/21 08:24:11;;;;;;;8.37;4.13;;;;;;;4.60;44.27;100052.97;5009478;28;20034;-83
2021/12/21 08:26:37;;;;;;;5.18;3.95;;;;;;;4.60;44.40;100073.06;5021139;28;20090;-83
2021/12/21 08:29:05;;;;;;;7.50;4.37;;;;;;;3.80;44.33;99922.81;5015151;28;20074;-83
2021/12/21 08:31:31;;;;;;;6.03;4.00;;;;;;;3.65;44.62;99939.69;5014609;28;20037;-83
2021/12/21 08:33:57;;;;;;;3.30;2.90;;;;;;;3.99;44.29;99984.81;5025812;28;20018;-83
2021/12/21 08:36:22;;;;;;;8.87;4.03;;;;;;;4.63;44.29;100088.50;5031120;28;20045;-82
2021/12/21 08:38:47;;;;;;;5.07;3.53;;;;;;;3.72;43.78;99945.28;5036797;28;20069;-82
2021/12/21 08:41:13;;;;;;;5.33;3.70;;;;;;;3.96;44.13;99964.16;5021134;28;20608;-82
2021/12/21 08:43:45;;;;;;;6.10;4.30;;;;;;;4.59;43.98;100055.72;5016913;28;20029;-82
2021/12/21 08:46:10;;;;;;;4.57;3.35;;;;;;;4.34;44.08;100031.56;5025129;28;20035;-82
2021/12/21 08:48:36;;;;;;;7.37;3.57;;;;;;;3.22;43.60;99837.94;5028754;28;20529;-82
2021/12/21 08:51:04;;;;;;;7.57;3.50;;;;;;;4.65;43.63;100045.59;5024370;28;20410;-81
2021/12/21 08:53:29;;;;;;;5.33;3.53;;;;;;;4.80;43.42;100074.84;5009570;28;20018;-82
2021/12/21 08:55:55;;;;;;;6.30;3.30;;;;;;;4.51;43.96;100011.06;5011343;28;20018;-82
2021/12/21 08:58:22;;;;;;;5.70;3.77;;;;;;;3.27;43.62;99824.50;5080527;22;20006;-83
2021/12/21 09:00:48;;;;;;;5.10;4.20;;;;;;;2.36;43.46;99671.91;5031745;28;20045;-83
2021/12/21 09:03:14;;;;;;;6.33;4.20;;;;;;;1.94;43.56;99590.16;5031856;28;20025;-83
2021/12/21 09:05:40;;;;;;;5.00;3.87;;;;;;;3.35;43.67;99877.75;5030489;28;20044;-85
2021/12/21 09:08:07;;;;;;;4.63;3.70;;;;;;;2.99;43.66;99743.28;5022732;28;20109;-84
2021/12/21 09:10:36;;;;;;;4.20;3.50;;;;;;;4.52;43.25;100039.72;5020390;28;20030;-85
2021/12/21 09:13:01;;;;;;;5.67;3.73;;;;;;;3.23;43.26;99781.34;5016764;28;20103;-87
2021/12/21 09:15:29;;;;;;;5.47;3.10;;;;;;;4.15;42.35;99981.78;5014643;28;20105;-86
2021/12/21 09:17:55;;;;;;;6.67;4.80;;;;;;;4.29;43.16;99991.09;5017760;28;20032;-86
2021/12/21 09:20:23;;;;;;;7.80;5.27;;;;;;;4.65;42.96;100001.13;5012298;28;20037;-86
2021/12/21 09:22:49;;;;;;;5.07;3.80;;;;;;;4.58;42.40;99986.06;5015824;28;20034;-81
2021/12/21 09:25:15;;;;;;;5.27;4.13;;;;;;;5.15;42.34;100090.22;5015544;28;20498;-86
2021/12/21 09:27:41;;;;;;;6.07;4.47;;;;;;;3.06;42.31;99761.88;5013645;28;20033;-87
2021/12/21 09:30:10;;;;;;;3.80;2.80;;;;;;;3.69;41.92;99878.44;5013746;28;20072;-87
2021/12/21 09:32:36;;;;;;;3.80;2.80;;;;;;;4.61;41.92;99998.88;5013374;28;20048;-83
2021/12/21 09:35:02;;;;;;;4.93;3.83;;;;;;;3.75;41.63;99884.97;4997913;28;20101;-84
2021/12/21 09:37:28;;;;;;;4.93;3.33;;;;;;;3.53;41.73;99817.16;5004610;28;20031;-81
2021/12/21 09:39:55;;;;;;;4.27;3.60;;;;;;;5.06;41.57;100038.63;5008072;28;20040;-84
2021/12/21 09:42:26;;;;;;;5.20;3.60;;;;;;;5.27;41.64;100064.81;5002606;28;20140;-86
2021/12/21 09:44:52;;;;;;;5.07;3.80;;;;;;;4.99;41.53;99995.63;5006790;28;20545;-85
2021/12/21 09:47:18;;;;;;;12.03;6.83;;;;;;;4.71;41.69;99963.16;5003757;28;20032;-87
2021/12/21 09:49:45;;;;;;;4.80;3.20;;;;;;;4.55;41.14;99950.56;5008221;28;20034;-88
2021/12/21 09:52:13;;;;;;;5.53;3.70;;;;;;;4.58;40.69;99928.53;5012322;28;20029;-88
2021/12/21 09:54:40;;;;;;;2.70;2.40;;;;;;;5.06;40.53;100010.69;5010782;28;20077;-89
2021/12/21 09:57:07;;;;;;;2.87;2.53;;;;;;;5.43;40.50;100052.06;5010139;28;20060;-87
2021/12/21 09:59:33;;;;;;;3.23;2.73;;;;;;;4.44;40.46;99900.94;5007962;28;20104;-87
2021/12/21 10:01:58;;;;;;;4.27;2.27;;;;;;;5.08;40.04;99972.13;5012180;28;20117;-88
2021/12/21 10:04:25;;;;;;;4.00;2.93;;;;;;;5.71;40.29;100060.94;5011340;28;20096;-88
2021/12/21 10:06:54;;;;;;;4.43;3.03;;;;;;;5.21;40.06;100018.22;5009894;28;20033;-88
2021/12/21 10:09:23;;;;;;;4.43;3.17;;;;;;;5.73;39.67;100059.84;5010853;28;20025;-89
2021/12/21 10:11:50;;;;;;;5.40;3.90;;;;;;;5.10;39.80;99936.19;5008653;28;20426;-84
2021/12/21 10:14:18;;;;;;;5.57;3.23;;;;;;;5.26;39.28;99997.69;5011362;28;20033;-86
2021/12/21 10:16:47;;;;;;;6.03;3.60;;;;;;;5.52;38.93;100003.28;5010057;28;20037;-87
2021/12/21 10:19:23;;;;;;;3.43;2.83;;;;;;;5.94;38.42;100061.56;5005567;28;20068;-87
2021/12/21 10:21:49;;;;;;;5.67;4.00;;;;;;;5.90;37.81;100061.03;5008968;28;20510;-86
2021/12/21 10:24:26;;;;;;;5.87;3.90;;;;;;;5.98;38.21;100055.13;5011558;28;20034;-83
2021/12/21 10:27:10;;;;;;;7.10;4.50;;;;;;;5.90;38.33;100041.84;5007948;28;20503;-82
2021/12/21 10:29:44;;;;;;;5.70;3.20;;;;;;;5.72;37.72;99986.63;5002892;28;20062;-81
2021/12/21 10:32:20;;;;;;;5.33;4.67;;;;;;;5.98;37.11;100024.50;5008415;28;20519;-80
2021/12/21 10:35:12;;;;;;;4.13;3.73;;;;;;;5.92;37.87;100032.06;5010051;28;20026;-80
2021/12/21 10:37:39;;;;;;;7.25;4.25;;;;;;;4.51;38.33;99799.28;5003425;28;20519;-80
2021/12/21 10:40:11;;;;;;;7.93;3.93;;;;;;;6.12;38.32;100057.34;5004649;28;20120;-80
2021/12/21 10:42:49;;;;;;;5.27;4.13;;;;;;;5.90;37.13;100044.47;5015116;28;20033;-79
2021/12/21 10:45:15;;;;;;;5.03;3.63;;;;;;;5.42;38.25;99930.75;5009855;28;20785;-78
2021/12/21 10:47:44;;;;;;;6.37;3.83;;;;;;;5.41;37.99;99928.28;5008032;28;20129;-78
2021/12/21 10:50:10;;;;;;;3.47;2.70;;;;;;;5.48;38.28;99923.31;5008095;28;20034;-78
2021/12/21 10:52:36;;;;;;;4.80;3.23;;;;;;;5.81;38.02;99984.97;5011657;28;20026;-79
2021/12/21 10:55:04;;;;;;;4.27;2.87;;;;;;;5.66;37.31;99981.94;5013603;28;20033;-80
2021/12/21 10:57:32;;;;;;;4.43;3.23;;;;;;;5.64;37.24;99970.75;5008260;28;20140;-78
2021/12/21 11:00:13;;;;;;;5.60;4.00;;;;;;;5.99;37.44;100033.19;5007784;28;20028;-79
2021/12/21 11:02:39;;;;;;;3.03;2.63;;;;;;;5.20;37.60;99914.44;5008547;28;20025;-81
2021/12/21 11:05:10;;;;;;;6.27;3.17;;;;;;;5.99;37.28;100052.38;5006982;28;20037;-80
2021/12/21 11:07:53;;;;;;;3.83;2.90;;;;;;;5.69;37.20;100021.78;5011812;28;20100;-81
2021/12/21 11:10:26;;;;;;;4.57;3.03;;;;;;;5.93;37.64;100016.19;5009944;28;20061;-82
2021/12/21 11:12:57;;;;;;;5.17;2.70;;;;;;;6.07;37.32;100046.44;5020893;28;20325;-82
2021/12/21 11:15:29;;;;;;;4.15;2.80;;;;;;;5.98;37.68;100042.03;5011674;28;20042;-82
2021/12/21 11:17:59;;;;;;;;;;;;;;;5.83;37.11;100028.44;5012130;28;20030;-82
2021/12/21 11:20:25;;;;;;;3.47;2.70;;;;;;;5.33;38.11;99934.19;5010341;28;20048;-82
2021/12/21 11:22:53;;;;;;;5.43;3.47;;;;;;;5.88;37.79;100057.69;5010197;28;20040;-81
2021/12/21 11:25:18;;;;;;;3.43;2.73;;;;;;;5.42;37.83;99959.56;5011381;28;20041;-82
2021/12/21 11:27:44;;;;;;;5.17;3.47;;;;;;;5.97;37.99;100030.72;5008555;28;20021;-86
2021/12/21 11:30:13;;;;;;;7.07;3.37;;;;;;;5.40;37.88;99929.25;5009311;28;20029;-87
2021/12/21 11:32:44;;;;;;;5.23;3.10;;;;;;;5.44;38.07;99943.72;5009201;28;20014;-82
2021/12/21 11:37:41;;;;;;;3.83;2.87;;;;;;;5.89;37.82;100041.03;5008148;28;20022;-82
2021/12/21 11:40:09;;;;;;;4.53;3.20;;;;;;;5.42;37.38;99932.56;5009222;28;20087;-82
2021/12/21 11:42:46;;;;;;;4.10;3.20;;;;;;;6.05;37.40;100045.75;5010793;28;20026;-84
2021/12/21 11:45:41;;;;;;;3.10;2.53;;;;;;;6.05;36.40;100045.75;5009875;28;20164;-85
2021/12/21 11:48:09;;;;;;;7.60;4.23;;;;;;;6.11;37.29;100047.84;5008497;28;20061;-81
2021/12/21 11:50:36;;;;;;;5.97;4.20;;;;;;;5.76;37.15;99956.56;5011049;28;20124;-83
2021/12/21 11:53:05;;;;;;;7.10;3.90;;;;;;;5.65;37.42;99936.56;5010848;28;20387;-82
2021/12/21 11:55:34;;;;;;;5.37;3.57;;;;;;;5.84;36.96;99969.00;5009254;28;20461;-82
2021/12/21 11:58:14;;;;;;;5.40;4.03;;;;;;;5.65;36.79;99936.56;5008207;28;20034;-81
2021/12/21 12:00:48;;;;;;;5.90;3.20;;;;;;;5.91;36.65;100005.03;5001591;28;20034;-82
2021/12/21 12:03:19;;;;;;;4.87;3.63;;;;;;;5.90;36.56;100005.16;5019519;28;20038;-84
2021/12/21 12:05:58;;;;;;;6.50;3.45;;;;;;;5.29;35.83;99926.75;5007906;28;20104;-88
2021/12/21 12:08:27;;;;;;;4.50;3.60;;;;;;;6.03;36.43;100055.56;5018217;28;20029;-88
2021/12/21 12:10:59;;;;;;;7.90;4.47;;;;;;;5.55;36.60;99984.69;5008387;28;20031;-82
2021/12/21 12:13:37;;;;;;;11.73;5.53;;;;;;;5.10;36.74;99917.03;5009096;28;20080;-80
2021/12/21 12:16:12;;;;;;;10.80;4.70;;;;;;;5.99;35.58;100068.09;4990163;28;20431;-85
2021/12/21 12:18:49;;;;;;;10.47;5.00;;;;;;;6.09;35.46;100055.00;5003673;28;20105;-83
2021/12/21 12:21:21;;;;;;;12.90;5.87;;;;;;;5.77;36.54;100013.25;5007872;28;20029;-86
2021/12/21 12:23:49;;;;;;;10.57;5.70;;;;;;;6.18;36.79;100054.19;5003729;28;20035;-90
2021/12/21 12:26:36;;;;;;;8.37;5.83;;;;;;;5.41;36.54;99942.19;5009210;28;20490;-90
2021/12/21 12:29:21;;;;;;;6.30;4.30;;;;;;;5.69;36.54;99985.13;5007521;28;20034;-89
2021/12/21 12:31:59;;;;;;;6.77;4.17;;;;;;;6.37;36.59;100054.19;5012329;28;20041;-89
2021/12/21 12:34:29;;;;;;;7.77;4.93;;;;;;;5.86;36.75;99967.06;5013235;28;20032;-89
2021/12/21 12:36:55;;;;;;;11.40;6.43;;;;;;;6.12;36.77;100023.28;5012524;28;20033;-91
2021/12/21 12:39:38;;;;;;;6.13;4.13;;;;;;;6.41;35.70;100069.63;4999534;28;20421;-87
2021/12/21 12:42:07;;;;;;;7.07;4.27;;;;;;;6.55;36.24;100061.34;5013348;28;20068;-87
2021/12/21 12:44:35;;;;;;;11.23;5.83;;;;;;;6.64;36.74;100060.50;5013125;28;20088;-90
2021/12/21 12:47:03;;;;;;;15.47;9.10;;;;;;;6.52;36.07;100072.13;5011959;28;20041;-90
2021/12/21 12:49:32;;;;;;;5.47;3.10;;;;;;;6.57;36.10;100068.13;5010538;28;20026;-90
2021/12/21 12:52:05;;;;;;;3.37;2.40;;;;;;;6.47;36.90;100095.31;5014295;28;20022;-90
2021/12/21 12:54:45;;;;;;;4.10;3.33;;;;;;;6.40;37.40;100075.84;5012888;28;20033;-90
2021/12/21 12:57:23;;;;;;;4.37;2.87;;;;;;;6.15;37.49;100041.34;5011079;28;20026;-91
2021/12/21 12:59:53;;;;;;;3.77;3.30;;;;;;;6.35;37.38;100078.88;5014231;28;20041;-90
2021/12/21 13:02:19;;;;;;;6.90;5.43;;;;;;;6.24;37.55;100060.66;5012897;28;20029;-90
2021/12/21 13:04:44;;;;;;;8.87;5.57;;;;;;;5.47;37.70;99943.44;5010916;28;20029;-89